sensor_id;sensor_type;location;lat;lon;timestamp;pressure;altitude;pressure_sealevel;temperature;humidity
7836;BME280;3963;42.658;23.298;2023-03-15T00:00:53;58733.50;;;5.33;77.28
7836;BME280;3963;42.658;23.298;2023-03-15T00:03:20;58712.38;;;5.30;78.27
7836;BME280;3963;42.658;23.298;2023-03-15T00:05:49;58732.44;;;5.32;78.47
7836;BME280;3963;42.658;23.298;2023-03-15T00:08:17;58712.81;;;5.28;78.75
7836;BME280;3963;42.658;23.298;2023-03-15T00:10:45;58721.84;;;5.36;78.93
7836;BME280;3963;42.658;23.298;2023-03-15T00:13:13;58702.06;;;5.13;79.12
7836;BME280;3963;42.658;23.298;2023-03-15T00:15:44;58677.94;;;4.97;80.63
7836;BME280;3963;42.658;23.298;2023-03-15T00:18:14;58635.78;;;4.79;82.38
7836;BME280;3963;42.658;23.298;2023-03-15T00:20:41;58679.78;;;4.91;81.54
7836;BME280;3963;42.658;23.298;2023-03-15T00:23:08;58675.91;;;4.97;81.63
7836;BME280;3963;42.658;23.298;2023-03-15T00:25:35;58695.97;;;4.99;81.32
7836;BME280;3963;42.658;23.298;2023-03-15T00:28:02;58672.25;;;4.96;82.29
7836;BME280;3963;42.658;23.298;2023-03-15T00:30:29;58664.41;;;4.91;83.70
7836;BME280;3963;42.658;23.298;2023-03-15T00:32:56;58653.38;;;4.83;85.38
7836;BME280;3963;42.658;23.298;2023-03-15T00:35:24;58641.94;;;4.94;85.00
7836;BME280;3963;42.658;23.298;2023-03-15T00:37:53;58685.34;;;5.04;83.80
7836;BME280;3963;42.658;23.298;2023-03-15T00:40:20;58667.91;;;5.19;83.96
7836;BME280;3963;42.658;23.298;2023-03-15T00:42:47;58698.56;;;5.31;84.71
7836;BME280;3963;42.658;23.298;2023-03-15T00:45:15;58692.78;;;5.43;84.39
7836;BME280;3963;42.658;23.298;2023-03-15T00:47:42;58748.19;;;5.42;83.25
7836;BME280;3963;42.658;23.298;2023-03-15T00:50:09;58721.38;;;5.38;82.37
7836;BME280;3963;42.658;23.298;2023-03-15T00:52:37;58742.34;;;5.51;80.93
7836;BME280;3963;42.658;23.298;2023-03-15T00:55:09;58743.94;;;5.52;80.89
7836;BME280;3963;42.658;23.298;2023-03-15T00:57:37;58731.38;;;5.45;79.97
7836;BME280;3963;42.658;23.298;2023-03-15T01:00:05;58715.44;;;5.45;78.46
7836;BME280;3963;42.658;23.298;2023-03-15T01:02:33;58696.38;;;5.27;78.42
7836;BME280;3963;42.658;23.298;2023-03-15T01:05:01;58692.00;;;5.35;77.45
7836;BME280;3963;42.658;23.298;2023-03-15T01:07:28;58690.34;;;5.31;76.63
7836;BME280;3963;42.658;23.298;2023-03-15T01:09:59;58716.84;;;5.41;76.26
7836;BME280;3963;42.658;23.298;2023-03-15T01:12:27;58717.56;;;5.47;77.60
7836;BME280;3963;42.658;23.298;2023-03-15T01:14:54;58755.63;;;5.49;78.87
7836;BME280;3963;42.658;23.298;2023-03-15T01:17:21;58727.50;;;5.37;83.16
7836;BME280;3963;42.658;23.298;2023-03-15T01:19:50;58701.03;;;5.43;83.89
7836;BME280;3963;42.658;23.298;2023-03-15T01:22:17;58747.47;;;5.51;84.47
7836;BME280;3963;42.658;23.298;2023-03-15T01:24:45;58724.63;;;5.44;83.82
7836;BME280;3963;42.658;23.298;2023-03-15T01:27:13;58743.47;;;5.54;83.78
7836;BME280;3963;42.658;23.298;2023-03-15T01:29:40;58740.22;;;5.49;82.70
7836;BME280;3963;42.658;23.298;2023-03-15T01:32:07;58731.00;;;5.50;83.44
7836;BME280;3963;42.658;23.298;2023-03-15T01:34:34;58716.22;;;5.53;82.57
7836;BME280;3963;42.658;23.298;2023-03-15T01:37:01;58715.81;;;5.40;82.90
7836;BME280;3963;42.658;23.298;2023-03-15T01:39:28;58716.44;;;5.43;83.71
7836;BME280;3963;42.658;23.298;2023-03-15T01:41:55;58759.41;;;5.55;80.55
7836;BME280;3963;42.658;23.298;2023-03-15T01:44:47;58711.06;;;5.53;80.81
7836;BME280;3963;42.658;23.298;2023-03-15T01:47:14;58754.28;;;5.55;83.78
7836;BME280;3963;42.658;23.298;2023-03-15T01:49:42;58729.50;;;5.51;86.39
7836;BME280;3963;42.658;23.298;2023-03-15T01:52:12;58738.09;;;5.47;86.52
7836;BME280;3963;42.658;23.298;2023-03-15T01:54:43;58661.63;;;5.47;85.89
7836;BME280;3963;42.658;23.298;2023-03-15T01:57:15;58745.19;;;5.44;84.62
7836;BME280;3963;42.658;23.298;2023-03-15T01:59:47;58734.47;;;5.46;82.08
7836;BME280;3963;42.658;23.298;2023-03-15T02:02:16;58732.00;;;5.34;79.84
7836;BME280;3963;42.658;23.298;2023-03-15T02:04:50;58728.72;;;5.43;81.85
7836;BME280;3963;42.658;23.298;2023-03-15T02:07:20;58696.09;;;5.34;83.67
7836;BME280;3963;42.658;23.298;2023-03-15T02:09:53;58732.72;;;5.39;81.46
7836;BME280;3963;42.658;23.298;2023-03-15T02:12:22;58729.78;;;5.44;82.02
7836;BME280;3963;42.658;23.298;2023-03-15T02:14:53;58726.16;;;5.43;85.01
7836;BME280;3963;42.658;23.298;2023-03-15T02:17:26;58697.94;;;5.43;85.69
7836;BME280;3963;42.658;23.298;2023-03-15T02:20:03;58698.00;;;5.14;82.77
7836;BME280;3963;42.658;23.298;2023-03-15T02:22:41;58649.75;;;4.82;84.95
7836;BME280;3963;42.658;23.298;2023-03-15T02:25:16;58658.75;;;4.91;86.49
7836;BME280;3963;42.658;23.298;2023-03-15T02:27:48;58644.78;;;4.87;87.62
7836;BME280;3963;42.658;23.298;2023-03-15T02:30:16;58653.09;;;4.90;86.71
7836;BME280;3963;42.658;23.298;2023-03-15T02:32:42;58652.56;;;4.90;87.23
7836;BME280;3963;42.658;23.298;2023-03-15T02:35:10;58678.38;;;4.95;87.10
7836;BME280;3963;42.658;23.298;2023-03-15T02:37:37;58638.56;;;5.01;88.40
7836;BME280;3963;42.658;23.298;2023-03-15T02:40:13;58652.56;;;4.90;90.96
7836;BME280;3963;42.658;23.298;2023-03-15T02:42:42;58676.66;;;5.06;91.04
7836;BME280;3963;42.658;23.298;2023-03-15T02:45:10;58680.81;;;5.22;90.45
7836;BME280;3963;42.658;23.298;2023-03-15T02:47:37;58687.44;;;5.21;88.85
7836;BME280;3963;42.658;23.298;2023-03-15T02:50:05;58692.25;;;5.11;88.84
7836;BME280;3963;42.658;23.298;2023-03-15T02:52:33;58662.47;;;4.94;92.23
7836;BME280;3963;42.658;23.298;2023-03-15T02:54:59;58650.41;;;5.02;91.42
7836;BME280;3963;42.658;23.298;2023-03-15T02:57:27;58652.13;;;4.92;89.60
7836;BME280;3963;42.658;23.298;2023-03-15T02:59:54;58628.88;;;4.87;89.33
7836;BME280;3963;42.658;23.298;2023-03-15T03:02:23;58622.19;;;4.71;89.06
7836;BME280;3963;42.658;23.298;2023-03-15T03:04:49;58642.78;;;4.73;90.01
7836;BME280;3963;42.658;23.298;2023-03-15T03:07:17;58649.16;;;4.65;90.61
7836;BME280;3963;42.658;23.298;2023-03-15T03:09:44;58617.44;;;4.52;91.72
7836;BME280;3963;42.658;23.298;2023-03-15T03:12:11;58589.13;;;4.32;94.84
7836;BME280;3963;42.658;23.298;2023-03-15T03:14:38;58571.34;;;4.37;95.58
7836;BME280;3963;42.658;23.298;2023-03-15T03:17:07;58601.97;;;4.49;93.69
7836;BME280;3963;42.658;23.298;2023-03-15T03:19:35;58650.13;;;4.63;93.94
7836;BME280;3963;42.658;23.298;2023-03-15T03:22:02;58612.28;;;4.66;92.89
7836;BME280;3963;42.658;23.298;2023-03-15T03:24:29;58587.59;;;4.47;94.34
7836;BME280;3963;42.658;23.298;2023-03-15T03:26:56;58638.47;;;4.52;95.42
7836;BME280;3963;42.658;23.298;2023-03-15T03:29:23;58605.78;;;4.55;94.33
7836;BME280;3963;42.658;23.298;2023-03-15T03:31:50;58580.59;;;4.53;95.01
7836;BME280;3963;42.658;23.298;2023-03-15T03:34:17;58583.19;;;4.38;94.20
7836;BME280;3963;42.658;23.298;2023-03-15T03:36:46;58622.81;;;4.59;94.10
7836;BME280;3963;42.658;23.298;2023-03-15T03:39:13;58604.19;;;4.54;95.19
7836;BME280;3963;42.658;23.298;2023-03-15T03:41:40;58597.03;;;4.54;96.70
7836;BME280;3963;42.658;23.298;2023-03-15T03:44:07;58623.38;;;4.60;96.10
7836;BME280;3963;42.658;23.298;2023-03-15T03:46:34;58598.53;;;4.53;97.09
7836;BME280;3963;42.658;23.298;2023-03-15T03:49:01;58619.38;;;4.63;96.00
7836;BME280;3963;42.658;23.298;2023-03-15T03:51:28;58634.91;;;4.68;95.98
7836;BME280;3963;42.658;23.298;2023-03-15T03:53:57;58642.16;;;4.70;96.96
7836;BME280;3963;42.658;23.298;2023-03-15T03:56:23;58601.53;;;4.66;98.20
7836;BME280;3963;42.658;23.298;2023-03-15T03:58:50;58607.69;;;4.67;98.49
7836;BME280;3963;42.658;23.298;2023-03-15T04:01:17;58647.81;;;4.71;98.40
7836;BME280;3963;42.658;23.298;2023-03-15T04:03:44;58657.00;;;4.84;95.22
7836;BME280;3963;42.658;23.298;2023-03-15T04:06:11;58647.00;;;4.92;94.68
7836;BME280;3963;42.658;23.298;2023-03-15T04:08:38;58638.75;;;4.91;94.88
7836;BME280;3963;42.658;23.298;2023-03-15T04:11:06;58646.00;;;4.93;95.95
7836;BME280;3963;42.658;23.298;2023-03-15T04:13:33;58634.81;;;4.80;95.76
7836;BME280;3963;42.658;23.298;2023-03-15T04:16:00;58627.41;;;4.73;97.12
7836;BME280;3963;42.658;23.298;2023-03-15T04:18:28;58622.00;;;4.80;97.24
7836;BME280;3963;42.658;23.298;2023-03-15T04:20:55;58633.75;;;4.79;96.70
7836;BME280;3963;42.658;23.298;2023-03-15T04:23:22;58617.25;;;4.61;98.27
7836;BME280;3963;42.658;23.298;2023-03-15T04:25:49;58616.97;;;4.68;99.37
7836;BME280;3963;42.658;23.298;2023-03-15T04:28:18;58585.50;;;4.77;100.00
7836;BME280;3963;42.658;23.298;2023-03-15T04:30:46;58602.22;;;4.71;100.00
7836;BME280;3963;42.658;23.298;2023-03-15T04:33:14;58635.94;;;4.84;100.00
7836;BME280;3963;42.658;23.298;2023-03-15T04:35:40;58611.91;;;4.85;100.00
7836;BME280;3963;42.658;23.298;2023-03-15T04:38:08;58630.63;;;4.93;100.00
7836;BME280;3963;42.658;23.298;2023-03-15T04:40:35;58654.50;;;5.01;100.00
7836;BME280;3963;42.658;23.298;2023-03-15T04:43:03;58647.31;;;5.02;99.53
7836;BME280;3963;42.658;23.298;2023-03-15T04:45:32;58671.53;;;5.06;98.77
7836;BME280;3963;42.658;23.298;2023-03-15T04:47:59;58658.44;;;5.13;98.42
7836;BME280;3963;42.658;23.298;2023-03-15T04:50:27;58685.41;;;5.21;95.50
7836;BME280;3963;42.658;23.298;2023-03-15T04:52:56;58691.06;;;5.22;95.34
7836;BME280;3963;42.658;23.298;2023-03-15T04:55:23;58697.84;;;5.26;95.83
7836;BME280;3963;42.658;23.298;2023-03-15T04:57:49;58668.94;;;5.20;96.50
7836;BME280;3963;42.658;23.298;2023-03-15T05:00:17;58705.03;;;5.25;97.19
7836;BME280;3963;42.658;23.298;2023-03-15T05:02:45;58717.22;;;5.37;96.62
7836;BME280;3963;42.658;23.298;2023-03-15T05:05:19;58687.41;;;5.35;94.58
7836;BME280;3963;42.658;23.298;2023-03-15T05:07:46;58734.22;;;5.38;94.95
7836;BME280;3963;42.658;23.298;2023-03-15T05:10:14;58717.22;;;5.37;95.82
7836;BME280;3963;42.658;23.298;2023-03-15T05:12:41;58684.91;;;5.06;94.45
7836;BME280;3963;42.658;23.298;2023-03-15T05:15:08;58684.38;;;5.06;96.73
7836;BME280;3963;42.658;23.298;2023-03-15T05:17:35;58640.53;;;4.98;98.10
7836;BME280;3963;42.658;23.298;2023-03-15T05:20:04;58674.09;;;5.06;97.93
7836;BME280;3963;42.658;23.298;2023-03-15T05:22:36;58679.41;;;5.11;96.25
7836;BME280;3963;42.658;23.298;2023-03-15T05:25:03;58696.19;;;5.22;93.31
7836;BME280;3963;42.658;23.298;2023-03-15T05:27:30;58695.81;;;5.26;93.63
7836;BME280;3963;42.658;23.298;2023-03-15T05:30:00;58686.94;;;5.06;94.75
7836;BME280;3963;42.658;23.298;2023-03-15T05:32:28;58670.53;;;5.22;94.78
7836;BME280;3963;42.658;23.298;2023-03-15T05:34:58;58701.84;;;5.37;94.48
7836;BME280;3963;42.658;23.298;2023-03-15T05:37:27;58695.78;;;5.41;90.87
7836;BME280;3963;42.658;23.298;2023-03-15T05:39:53;58694.41;;;5.30;91.52
7836;BME280;3963;42.658;23.298;2023-03-15T05:42:20;58682.66;;;5.31;89.60
7836;BME280;3963;42.658;23.298;2023-03-15T05:44:50;58713.16;;;5.38;91.78
7836;BME280;3963;42.658;23.298;2023-03-15T05:47:17;58720.13;;;5.47;92.42
7836;BME280;3963;42.658;23.298;2023-03-15T05:49:44;58700.41;;;5.40;89.28
7836;BME280;3963;42.658;23.298;2023-03-15T05:52:11;58698.97;;;5.44;89.86
7836;BME280;3963;42.658;23.298;2023-03-15T05:54:39;58705.63;;;5.43;87.44
7836;BME280;3963;42.658;23.298;2023-03-15T05:57:06;58748.16;;;5.56;87.06
7836;BME280;3963;42.658;23.298;2023-03-15T05:59:33;58738.16;;;5.64;86.32
7836;BME280;3963;42.658;23.298;2023-03-15T06:02:00;58726.25;;;5.77;85.34
7836;BME280;3963;42.658;23.298;2023-03-15T06:04:26;58759.81;;;5.82;84.68
7836;BME280;3963;42.658;23.298;2023-03-15T06:06:54;58746.09;;;5.86;81.70
7836;BME280;3963;42.658;23.298;2023-03-15T06:09:20;58784.63;;;5.86;78.48
7836;BME280;3963;42.658;23.298;2023-03-15T06:11:48;58770.84;;;6.05;78.91
7836;BME280;3963;42.658;23.298;2023-03-15T06:14:15;58803.53;;;6.14;77.74
7836;BME280;3963;42.658;23.298;2023-03-15T06:16:42;58835.56;;;6.35;76.21
7836;BME280;3963;42.658;23.298;2023-03-15T06:19:08;58854.88;;;6.43;73.98
7836;BME280;3963;42.658;23.298;2023-03-15T06:21:35;58808.06;;;6.43;71.22
7836;BME280;3963;42.658;23.298;2023-03-15T06:24:02;58852.63;;;6.53;69.05
7836;BME280;3963;42.658;23.298;2023-03-15T06:26:30;58808.09;;;6.28;67.50
7836;BME280;3963;42.658;23.298;2023-03-15T06:28:59;58804.56;;;6.30;68.66
7836;BME280;3963;42.658;23.298;2023-03-15T06:31:26;58831.28;;;6.45;66.78
7836;BME280;3963;42.658;23.298;2023-03-15T06:33:53;58869.53;;;6.67;65.72
7836;BME280;3963;42.658;23.298;2023-03-15T06:36:20;58861.09;;;6.76;65.20
7836;BME280;3963;42.658;23.298;2023-03-15T06:38:47;58916.56;;;7.04;64.60
7836;BME280;3963;42.658;23.298;2023-03-15T06:41:13;58918.34;;;6.96;63.21
7836;BME280;3963;42.658;23.298;2023-03-15T06:43:40;58910.66;;;7.28;63.29
7836;BME280;3963;42.658;23.298;2023-03-15T06:46:08;59017.53;;;7.68;61.92
7836;BME280;3963;42.658;23.298;2023-03-15T06:48:35;59014.53;;;7.70;61.79
7836;BME280;3963;42.658;23.298;2023-03-15T06:51:02;58951.22;;;7.57;61.55
7836;BME280;3963;42.658;23.298;2023-03-15T06:53:30;58983.84;;;7.78;60.91
7836;BME280;3963;42.658;23.298;2023-03-15T06:55:57;59005.03;;;7.64;60.78
7836;BME280;3963;42.658;23.298;2023-03-15T06:58:23;58998.09;;;7.72;61.48
7836;BME280;3963;42.658;23.298;2023-03-15T07:00:50;59029.59;;;7.90;60.44
7836;BME280;3963;42.658;23.298;2023-03-15T07:03:18;59034.22;;;7.74;59.33
7836;BME280;3963;42.658;23.298;2023-03-15T07:05:46;58988.59;;;7.65;59.69
7836;BME280;3963;42.658;23.298;2023-03-15T07:08:16;59019.31;;;7.75;59.79
7836;BME280;3963;42.658;23.298;2023-03-15T07:10:43;59013.91;;;7.67;59.74
7836;BME280;3963;42.658;23.298;2023-03-15T07:13:10;59023.72;;;7.84;58.71
7836;BME280;3963;42.658;23.298;2023-03-15T07:15:37;59013.28;;;7.79;58.91
7836;BME280;3963;42.658;23.298;2023-03-15T07:18:04;59025.50;;;7.91;57.29
7836;BME280;3963;42.658;23.298;2023-03-15T07:20:32;59055.84;;;8.05;57.18
7836;BME280;3963;42.658;23.298;2023-03-15T07:22:59;59083.03;;;8.30;55.62
7836;BME280;3963;42.658;23.298;2023-03-15T07:25:26;59114.03;;;8.48;55.48
7836;BME280;3963;42.658;23.298;2023-03-15T07:27:52;59142.09;;;8.69;54.21
7836;BME280;3963;42.658;23.298;2023-03-15T07:30:20;59107.56;;;8.71;54.19
7836;BME280;3963;42.658;23.298;2023-03-15T07:32:46;59154.59;;;8.88;53.91
7836;BME280;3963;42.658;23.298;2023-03-15T07:35:14;59213.25;;;9.29;53.23
7836;BME280;3963;42.658;23.298;2023-03-15T07:37:43;59206.31;;;9.37;52.80
7836;BME280;3963;42.658;23.298;2023-03-15T07:40:11;59212.19;;;9.28;52.32
7836;BME280;3963;42.658;23.298;2023-03-15T07:42:39;59245.25;;;9.60;51.87
7836;BME280;3963;42.658;23.298;2023-03-15T07:45:07;59146.91;;;9.55;51.71
7836;BME280;3963;42.658;23.298;2023-03-15T07:47:34;59227.41;;;9.35;51.29
7836;BME280;3963;42.658;23.298;2023-03-15T07:50:01;59249.50;;;9.47;51.77
7836;BME280;3963;42.658;23.298;2023-03-15T07:52:29;59284.59;;;9.77;50.79
7836;BME280;3963;42.658;23.298;2023-03-15T07:54:57;59233.47;;;9.31;50.78
7836;BME280;3963;42.658;23.298;2023-03-15T07:57:24;59268.69;;;9.65;50.53
7836;BME280;3963;42.658;23.298;2023-03-15T07:59:51;59264.47;;;9.78;50.12
7836;BME280;3963;42.658;23.298;2023-03-15T08:02:17;59292.91;;;9.78;49.62
7836;BME280;3963;42.658;23.298;2023-03-15T08:04:45;59299.41;;;9.72;49.66
7836;BME280;3963;42.658;23.298;2023-03-15T08:07:13;59257.56;;;9.57;49.52
7836;BME280;3963;42.658;23.298;2023-03-15T08:09:39;59284.31;;;9.84;49.62
7836;BME280;3963;42.658;23.298;2023-03-15T08:12:08;59328.03;;;10.23;48.90
7836;BME280;3963;42.658;23.298;2023-03-15T08:14:34;59322.16;;;10.18;48.83
7836;BME280;3963;42.658;23.298;2023-03-15T08:17:01;59344.13;;;10.09;48.91
7836;BME280;3963;42.658;23.298;2023-03-15T08:19:28;59340.31;;;10.35;48.78
7836;BME280;3963;42.658;23.298;2023-03-15T08:21:55;59335.53;;;10.30;49.26
7836;BME280;3963;42.658;23.298;2023-03-15T08:24:22;59291.16;;;10.03;49.69
7836;BME280;3963;42.658;23.298;2023-03-15T08:26:48;59417.25;;;10.76;48.77
7836;BME280;3963;42.658;23.298;2023-03-15T08:29:16;59403.56;;;10.85;46.35
7836;BME280;3963;42.658;23.298;2023-03-15T08:31:43;59406.09;;;10.68;48.02
7836;BME280;3963;42.658;23.298;2023-03-15T08:34:10;59485.47;;;11.18;46.86
7836;BME280;3963;42.658;23.298;2023-03-15T08:36:37;59493.28;;;11.35;45.75
7836;BME280;3963;42.658;23.298;2023-03-15T08:39:03;59457.19;;;10.94;45.97
7836;BME280;3963;42.658;23.298;2023-03-15T08:41:30;59517.38;;;11.58;46.45
7836;BME280;3963;42.658;23.298;2023-03-15T08:43:57;59565.03;;;12.03;44.35
7836;BME280;3963;42.658;23.298;2023-03-15T08:46:25;59643.50;;;12.52;43.55
7836;BME280;3963;42.658;23.298;2023-03-15T08:48:52;59697.97;;;13.13;41.92
7836;BME280;3963;42.658;23.298;2023-03-15T08:51:19;59763.09;;;13.33;41.55
7836;BME280;3963;42.658;23.298;2023-03-15T08:53:46;59751.81;;;13.54;40.66
7836;BME280;3963;42.658;23.298;2023-03-15T08:56:13;59772.56;;;13.52;40.44
7836;BME280;3963;42.658;23.298;2023-03-15T08:58:39;59753.53;;;13.26;41.07
7836;BME280;3963;42.658;23.298;2023-03-15T09:01:07;59676.31;;;12.71;42.18
7836;BME280;3963;42.658;23.298;2023-03-15T09:03:37;59591.53;;;12.03;44.56
7836;BME280;3963;42.658;23.298;2023-03-15T09:06:05;59632.78;;;12.42;43.79
7836;BME280;3963;42.658;23.298;2023-03-15T09:08:32;59611.13;;;12.32;43.82
7836;BME280;3963;42.658;23.298;2023-03-15T09:10:59;59688.97;;;12.61;43.48
7836;BME280;3963;42.658;23.298;2023-03-15T09:13:26;59725.81;;;12.91;42.68
7836;BME280;3963;42.658;23.298;2023-03-15T09:15:54;59636.34;;;12.41;43.31
7836;BME280;3963;42.658;23.298;2023-03-15T09:18:21;59568.13;;;11.86;44.38
7836;BME280;3963;42.658;23.298;2023-03-15T09:20:50;59581.47;;;11.82;45.12
7836;BME280;3963;42.658;23.298;2023-03-15T09:23:16;59512.94;;;11.49;46.01
7836;BME280;3963;42.658;23.298;2023-03-15T09:25:43;59523.41;;;11.37;47.06
7836;BME280;3963;42.658;23.298;2023-03-15T09:28:10;59546.50;;;11.76;46.49
7836;BME280;3963;42.658;23.298;2023-03-15T09:30:38;59535.63;;;11.60;46.66
7836;BME280;3963;42.658;23.298;2023-03-15T09:33:06;59538.97;;;11.68;47.09
7836;BME280;3963;42.658;23.298;2023-03-15T09:35:33;59593.94;;;11.98;46.38
7836;BME280;3963;42.658;23.298;2023-03-15T09:38:01;59586.28;;;12.18;45.63
7836;BME280;3963;42.658;23.298;2023-03-15T09:40:31;59611.22;;;12.34;45.31
7836;BME280;3963;42.658;23.298;2023-03-15T09:43:02;59689.47;;;12.76;44.22
7836;BME280;3963;42.658;23.298;2023-03-15T09:45:39;59680.47;;;12.55;43.64
7836;BME280;3963;42.658;23.298;2023-03-15T09:48:09;59618.22;;;12.26;44.76
7836;BME280;3963;42.658;23.298;2023-03-15T09:50:40;59609.19;;;12.20;45.82
7836;BME280;3963;42.658;23.298;2023-03-15T09:53:15;59559.63;;;11.81;46.10
7836;BME280;3963;42.658;23.298;2023-03-15T09:55:45;59545.00;;;11.77;46.21
7836;BME280;3963;42.658;23.298;2023-03-15T09:58:17;59533.56;;;11.93;45.85
7836;BME280;3963;42.658;23.298;2023-03-15T10:00:47;59558.97;;;11.92;46.54
7836;BME280;3963;42.658;23.298;2023-03-15T10:03:17;59525.69;;;11.58;46.39
7836;BME280;3963;42.658;23.298;2023-03-15T10:05:55;59533.03;;;11.60;47.22
7836;BME280;3963;42.658;23.298;2023-03-15T10:08:25;59515.44;;;11.46;47.26
7836;BME280;3963;42.658;23.298;2023-03-15T10:10:55;59473.47;;;11.31;47.91
7836;BME280;3963;42.658;23.298;2023-03-15T10:13:42;59545.81;;;11.55;47.65
7836;BME280;3963;42.658;23.298;2023-03-15T10:16:26;59536.50;;;11.56;47.58
7836;BME280;3963;42.658;23.298;2023-03-15T10:19:04;59503.34;;;11.57;47.56
7836;BME280;3963;42.658;23.298;2023-03-15T10:21:37;59577.94;;;11.86;46.99
7836;BME280;3963;42.658;23.298;2023-03-15T10:24:16;59625.16;;;12.15;45.35
7836;BME280;3963;42.658;23.298;2023-03-15T10:26:44;59592.97;;;12.00;46.61
7836;BME280;3963;42.658;23.298;2023-03-15T10:29:14;59600.78;;;11.85;45.78
7836;BME280;3963;42.658;23.298;2023-03-15T10:31:43;59552.22;;;11.76;46.41
7836;BME280;3963;42.658;23.298;2023-03-15T10:34:12;59561.00;;;11.75;46.48
7836;BME280;3963;42.658;23.298;2023-03-15T10:36:43;59527.91;;;11.63;47.12
7836;BME280;3963;42.658;23.298;2023-03-15T10:39:12;59565.66;;;11.59;47.67
7836;BME280;3963;42.658;23.298;2023-03-15T10:41:41;59497.56;;;11.39;47.68
7836;BME280;3963;42.658;23.298;2023-03-15T10:44:11;59510.41;;;11.51;48.42
7836;BME280;3963;42.658;23.298;2023-03-15T10:46:39;59549.03;;;11.73;47.33
7836;BME280;3963;42.658;23.298;2023-03-15T10:49:10;59550.50;;;11.87;47.27
7836;BME280;3963;42.658;23.298;2023-03-15T10:51:40;59552.94;;;11.82;47.08
7836;BME280;3963;42.658;23.298;2023-03-15T10:54:14;59556.59;;;11.68;46.97
7836;BME280;3963;42.658;23.298;2023-03-15T10:56:45;59516.59;;;11.50;46.94
7836;BME280;3963;42.658;23.298;2023-03-15T10:59:18;59491.78;;;11.36;48.46
7836;BME280;3963;42.658;23.298;2023-03-15T11:01:46;59449.66;;;11.16;48.61
7836;BME280;3963;42.658;23.298;2023-03-15T11:04:17;59498.81;;;11.14;48.67
7836;BME280;3963;42.658;23.298;2023-03-15T11:06:46;59474.00;;;11.32;48.34
7836;BME280;3963;42.658;23.298;2023-03-15T11:09:16;59471.16;;;11.24;48.10
7836;BME280;3963;42.658;23.298;2023-03-15T11:11:56;59520.63;;;11.46;48.06
7836;BME280;3963;42.658;23.298;2023-03-15T11:14:24;59539.38;;;11.64;47.36
7836;BME280;3963;42.658;23.298;2023-03-15T11:16:53;59510.88;;;11.49;47.52
7836;BME280;3963;42.658;23.298;2023-03-15T11:19:22;59529.00;;;11.64;48.41
7836;BME280;3963;42.658;23.298;2023-03-15T11:21:52;59555.63;;;11.70;47.88
7836;BME280;3963;42.658;23.298;2023-03-15T11:24:26;59563.84;;;11.68;46.87
7836;BME280;3963;42.658;23.298;2023-03-15T11:26:54;59483.69;;;11.11;48.10
7836;BME280;3963;42.658;23.298;2023-03-15T11:29:24;59538.34;;;11.34;47.91
7836;BME280;3963;42.658;23.298;2023-03-15T11:31:52;59496.06;;;11.40;52.29
7836;BME280;3963;42.658;23.298;2023-03-15T11:34:36;59492.47;;;11.10;53.79
7836;BME280;3963;42.658;23.298;2023-03-15T11:37:11;59451.63;;;11.13;53.72
7836;BME280;3963;42.658;23.298;2023-03-15T11:39:44;59474.75;;;11.23;54.82
7836;BME280;3963;42.658;23.298;2023-03-15T11:42:18;59491.88;;;11.24;58.19
7836;BME280;3963;42.658;23.298;2023-03-15T11:44:48;59466.91;;;11.05;62.65
7836;BME280;3963;42.658;23.298;2023-03-15T11:47:24;59475.78;;;10.92;60.43
7836;BME280;3963;42.658;23.298;2023-03-15T11:49:54;59384.03;;;10.74;63.23
7836;BME280;3963;42.658;23.298;2023-03-15T11:52:23;59439.25;;;10.99;62.75
7836;BME280;3963;42.658;23.298;2023-03-15T11:54:54;59487.38;;;11.13;62.50
7836;BME280;3963;42.658;23.298;2023-03-15T11:57:39;59485.88;;;11.31;60.68
7836;BME280;3963;42.658;23.298;2023-03-15T12:00:49;59459.69;;;11.06;61.09
7836;BME280;3963;42.658;23.298;2023-03-15T12:03:28;59475.84;;;11.09;59.70
7836;BME280;3963;42.658;23.298;2023-03-15T12:05:59;59480.22;;;11.16;60.88
7836;BME280;3963;42.658;23.298;2023-03-15T12:08:41;59449.22;;;11.03;61.73
7836;BME280;3963;42.658;23.298;2023-03-15T12:11:11;59464.75;;;11.18;60.78
7836;BME280;3963;42.658;23.298;2023-03-15T12:13:50;59505.63;;;11.32;59.14
7836;BME280;3963;42.658;23.298;2023-03-15T12:16:20;59542.06;;;11.52;58.69
7836;BME280;3963;42.658;23.298;2023-03-15T12:18:47;59519.31;;;11.38;58.16
7836;BME280;3963;42.658;23.298;2023-03-15T12:21:20;59484.03;;;11.22;57.63
7836;BME280;3963;42.658;23.298;2023-03-15T12:23:55;59458.59;;;11.20;58.35
7836;BME280;3963;42.658;23.298;2023-03-15T12:26:36;59446.56;;;11.01;61.97
7836;BME280;3963;42.658;23.298;2023-03-15T12:29:09;59450.38;;;10.75;62.79
7836;BME280;3963;42.658;23.298;2023-03-15T12:31:57;59431.75;;;10.92;63.38
7836;BME280;3963;42.658;23.298;2023-03-15T12:34:29;59463.00;;;10.97;63.29
7836;BME280;3963;42.658;23.298;2023-03-15T12:37:01;59461.03;;;11.00;63.72
7836;BME280;3963;42.658;23.298;2023-03-15T12:39:43;59432.16;;;10.73;62.74
7836;BME280;3963;42.658;23.298;2023-03-15T12:45:34;59373.88;;;10.32;63.83
7836;BME280;3963;42.658;23.298;2023-03-15T12:48:27;59388.78;;;10.29;64.61
7836;BME280;3963;42.658;23.298;2023-03-15T12:50:59;59405.25;;;10.57;63.82
7836;BME280;3963;42.658;23.298;2023-03-15T12:53:35;59416.00;;;10.70;62.45
7836;BME280;3963;42.658;23.298;2023-03-15T12:56:43;59412.81;;;10.52;63.67
7836;BME280;3963;42.658;23.298;2023-03-15T12:59:20;59401.31;;;10.63;62.75
7836;BME280;3963;42.658;23.298;2023-03-15T13:01:50;59424.22;;;10.68;61.67
7836;BME280;3963;42.658;23.298;2023-03-15T13:04:17;59429.63;;;10.90;61.36
7836;BME280;3963;42.658;23.298;2023-03-15T13:06:50;59431.38;;;10.96;60.60
7836;BME280;3963;42.658;23.298;2023-03-15T13:09:40;59505.66;;;11.18;59.45
7836;BME280;3963;42.658;23.298;2023-03-15T13:12:13;59495.72;;;11.30;59.32
7836;BME280;3963;42.658;23.298;2023-03-15T13:14:47;59527.50;;;11.50;57.81
7836;BME280;3963;42.658;23.298;2023-03-15T13:17:34;59545.56;;;11.48;58.26
7836;BME280;3963;42.658;23.298;2023-03-15T13:20:16;59535.78;;;11.65;57.07
7836;BME280;3963;42.658;23.298;2023-03-15T13:22:50;59577.59;;;11.90;55.57
7836;BME280;3963;42.658;23.298;2023-03-15T13:25:25;59581.16;;;11.89;54.35
7836;BME280;3963;42.658;23.298;2023-03-15T13:27:55;59569.19;;;11.87;54.48
7836;BME280;3963;42.658;23.298;2023-03-15T13:30:30;59598.31;;;12.05;54.12
7836;BME280;3963;42.658;23.298;2023-03-15T13:33:10;59589.00;;;12.06;53.71